Time;durP1;ratioP1;P1;durP2;ratioP2;P2;SDS_P1;SDS_P2;PMS_P1;PMS_P2;Temp;Humidity;BMP_temperature;BMP_pressure;BME280_temperature;BME280_humidity;BME280_pressure;Samples;Min_cycle;Max_cycle;Signal;HPM_P1;HPM_P2
2023/03/01 00:01:32;;;;;;;104.00;63.70;;;;;;;-0.77;84.45;101707.05;179607;1273;44073;-86
2023/03/01 00:05:35;;;;;;;110.50;58.60;;;;;;;-0.72;85.08;101705.77;179523;1274;44134;-87
2023/03/01 00:09:39;;;;;;;119.80;66.50;;;;;;;-0.66;84.52;101704.84;179653;1272;43919;-87
2023/03/01 00:13:44;;;;;;;123.00;65.20;;;;;;;-0.70;83.84;101707.82;179409;1270;43972;-87
2023/03/01 00:17:47;;;;;;;129.70;66.20;;;;;;;-0.91;84.56;101709.98;179576;1271;59732;-84
2023/03/01 00:21:50;;;;;;;113.20;67.60;;;;;;;-1.01;84.20;101708.34;179665;1270;44153;-85
2023/03/01 00:25:54;;;;;;;133.80;73.30;;;;;;;-1.01;84.18;101702.42;179275;1273;44192;-84
2023/03/01 00:29:57;;;;;;;170.20;85.10;;;;;;;-0.95;84.33;101703.25;179579;1270;44152;-84
2023/03/01 00:34:05;;;;;;;161.50;84.20;;;;;;;-0.89;83.43;101701.08;179398;1271;44143;-83
2023/03/01 00:38:08;;;;;;;136.10;75.90;;;;;;;-0.89;82.85;101697.77;179637;1272;60144;-83
2023/03/01 00:42:12;;;;;;;139.10;78.30;;;;;;;-0.98;83.10;101691.61;179739;1271;45474;-84
2023/03/01 00:46:18;;;;;;;159.40;77.70;;;;;;;-1.09;83.79;101680.75;179616;1272;44293;-84
2023/03/01 00:50:23;;;;;;;142.10;79.90;;;;;;;-1.13;83.76;101672.09;179664;1271;43749;-84
2023/03/01 00:54:26;;;;;;;161.50;87.10;;;;;;;-1.13;83.37;101671.39;179353;1272;44108;-84
2023/03/01 00:58:29;;;;;;;144.30;86.20;;;;;;;-1.06;83.75;101674.80;179561;1272;58031;-84
2023/03/01 01:02:34;;;;;;;164.60;88.00;;;;;;;-1.07;83.79;101667.67;179524;1273;44137;-84
2023/03/01 01:06:42;;;;;;;147.30;79.80;;;;;;;-1.09;84.10;101667.68;179626;1270;44173;-84
2023/03/01 01:10:46;;;;;;;108.60;58.70;;;;;;;-1.07;85.17;101669.92;179789;1273;43868;-84
2023/03/01 01:14:49;;;;;;;93.30;53.10;;;;;;;-1.01;85.44;101666.55;179694;1272;43772;-85
2023/03/01 01:18:53;;;;;;;128.80;67.80;;;;;;;-0.99;84.78;101656.77;179705;1273;57931;-84
2023/03/01 01:22:57;;;;;;;115.20;66.60;;;;;;;-1.32;86.15;101641.48;179394;1270;44045;-84
2023/03/01 01:27:01;;;;;;;140.00;84.50;;;;;;;-1.60;86.84;101636.88;179615;1270;43916;-84
2023/03/01 01:31:05;;;;;;;143.20;88.10;;;;;;;-1.67;86.96;101641.29;179776;1270;44120;-84
2023/03/01 01:35:09;;;;;;;145.40;83.80;;;;;;;-1.60;87.33;101636.87;179617;1271;44136;-84
2023/03/01 01:39:12;;;;;;;105.90;63.50;;;;;;;-1.52;87.55;101637.66;179459;1270;59249;-84
2023/03/01 01:43:35;;;;;;;109.00;58.20;;;;;;;-1.50;87.99;101638.52;179558;1270;44030;-84
2023/03/01 01:47:41;;;;;;;96.10;56.70;;;;;;;-1.45;87.62;101633.60;179403;1271;43758;-84
2023/03/01 01:51:48;;;;;;;106.50;59.20;;;;;;;-1.37;87.69;101629.16;179429;1270;43872;-84
2023/03/01 01:55:58;;;;;;;102.20;59.40;;;;;;;-1.39;86.67;101621.52;179211;1270;43751;-84
2023/03/01 02:00:06;;;;;;;92.00;55.70;;;;;;;-1.42;86.67;101619.80;179246;1272;58490;-85
2023/03/01 02:04:11;;;;;;;107.00;57.80;;;;;;;-1.40;86.52;101616.66;179282;1270;44455;-85
2023/03/01 02:08:18;;;;;;;96.50;56.80;;;;;;;-1.34;85.75;101612.77;179575;1270;43769;-85
2023/03/01 02:12:24;;;;;;;105.40;57.90;;;;;;;-1.33;84.88;101611.90;179442;1270;43885;-84
2023/03/01 02:16:28;;;;;;;92.50;54.10;;;;;;;-1.36;84.65;101607.58;179607;1270;43911;-85
2023/03/01 02:20:39;;;;;;;92.10;53.40;;;;;;;-1.38;84.31;101602.89;179372;1270;58304;-85
2023/03/01 02:24:54;;;;;;;85.70;51.70;;;;;;;-1.40;85.51;101603.26;179685;1270;44165;-85
2023/03/01 02:28:57;;;;;;;91.40;54.50;;;;;;;-1.49;86.24;101607.36;179920;1270;43986;-84
2023/03/01 02:33:04;;;;;;;94.40;57.40;;;;;;;-1.49;85.92;101612.06;179598;1270;44793;-84
2023/03/01 02:37:14;;;;;;;84.20;58.00;;;;;;;-1.51;87.58;101613.47;179593;1270;44267;-84
2023/03/01 02:41:20;;;;;;;99.60;55.30;;;;;;;-1.48;88.67;101607.00;179589;1270;59284;-84
2023/03/01 02:45:25;;;;;;;103.40;58.70;;;;;;;-1.42;87.69;101608.34;179556;1270;43919;-85
2023/03/01 02:49:34;;;;;;;100.50;57.90;;;;;;;-1.38;87.73;101608.82;179590;1270;44036;-85
2023/03/01 02:53:50;;;;;;;86.70;52.70;;;;;;;-1.37;87.29;101607.07;179515;1273;44231;-85
2023/03/01 02:57:56;;;;;;;98.70;61.80;;;;;;;-1.36;87.34;101610.53;179940;1270;44106;-85
2023/03/01 03:02:01;;;;;;;104.70;61.50;;;;;;;-1.31;87.29;101617.09;179648;1273;59300;-85
2023/03/01 03:06:04;;;;;;;114.60;61.40;;;;;;;-1.22;86.88;101618.73;179485;1270;44134;-85
2023/03/01 03:10:19;;;;;;;94.30;55.60;;;;;;;-1.19;86.76;101623.57;179610;1270;44157;-85
2023/03/01 03:14:22;;;;;;;78.60;46.20;;;;;;;-1.27;85.22;101616.35;179755;1272;43995;-85
2023/03/01 03:18:26;;;;;;;108.50;63.40;;;;;;;-1.48;84.74;101615.19;179432;1272;44077;-84
2023/03/01 03:22:30;;;;;;;115.70;63.40;;;;;;;-1.50;85.31;101609.80;179519;1273;58302;-85
2023/03/01 03:26:34;;;;;;;107.60;63.00;;;;;;;-1.49;84.98;101608.23;179454;1272;44062;-85
2023/03/01 03:30:40;;;;;;;98.90;58.30;;;;;;;-1.50;85.38;101610.68;179499;1272;43756;-85
2023/03/01 03:34:44;;;;;;;95.70;55.10;;;;;;;-1.58;85.52;101608.14;179279;1273;44061;-85
2023/03/01 03:38:47;;;;;;;78.10;49.80;;;;;;;-1.62;85.52;101603.84;179365;1272;43788;-85
2023/03/01 03:42:50;;;;;;;96.50;58.10;;;;;;;-1.81;85.29;101598.63;179324;1272;58256;-85
2023/03/01 03:46:54;;;;;;;102.70;60.80;;;;;;;-1.96;85.90;101594.76;179435;1272;43830;-85
2023/03/01 03:50:59;;;;;;;103.80;63.90;;;;;;;-2.00;86.44;101597.04;179479;1272;43901;-85
2023/03/01 03:55:03;;;;;;;98.80;56.30;;;;;;;-1.95;86.70;101595.97;179165;1272;43781;-84
2023/03/01 03:59:06;;;;;;;96.30;56.00;;;;;;;-1.95;86.45;101593.88;179049;1272;44149;-86
2023/03/01 04:03:11;;;;;;;111.20;60.90;;;;;;;-1.92;87.03;101595.59;179429;1272;59721;-87
2023/03/01 04:07:16;;;;;;;96.20;55.80;;;;;;;-1.83;87.30;101591.17;179403;1272;43834;-85
2023/03/01 04:11:28;;;;;;;91.70;56.70;;;;;;;-2.00;86.32;101588.35;179380;1272;43765;-86
2023/03/01 04:15:32;;;;;;;92.40;56.30;;;;;;;-2.10;86.45;101583.92;179354;1272;44011;-86
2023/03/01 04:19:36;;;;;;;99.60;63.90;;;;;;;-2.04;86.71;101577.96;179392;1272;43774;-86
2023/03/01 04:23:43;;;;;;;95.00;58.40;;;;;;;-1.97;85.80;101581.20;179341;1273;59455;-87
2023/03/01 04:27:46;;;;;;;87.80;55.70;;;;;;;-1.89;86.21;101581.82;179331;1273;43919;-86
2023/03/01 04:31:49;;;;;;;95.60;56.10;;;;;;;-1.89;84.77;101577.48;179594;1271;43816;-87
2023/03/01 04:35:53;;;;;;;97.50;57.40;;;;;;;-1.92;84.89;101575.42;179388;1272;44216;-87
2023/03/01 04:39:57;;;;;;;90.80;55.60;;;;;;;-1.90;84.67;101574.88;179523;1272;43772;-87
2023/03/01 04:44:00;;;;;;;100.10;58.80;;;;;;;-1.89;84.05;101575.91;179244;1272;59237;-86
2023/03/01 04:48:04;;;;;;;99.10;57.90;;;;;;;-1.92;83.36;101575.41;179256;1272;44101;-87
2023/03/01 04:52:09;;;;;;;98.50;55.70;;;;;;;-2.03;84.06;101577.60;179476;1272;43990;-86
2023/03/01 04:56:17;;;;;;;124.40;64.60;;;;;;;-2.15;85.20;101579.80;179587;1272;43814;-86
2023/03/01 05:00:22;;;;;;;104.00;62.70;;;;;;;-2.14;85.92;101575.96;179097;1271;291743;-87
2023/03/01 05:04:25;;;;;;;104.80;60.30;;;;;;;-2.09;85.58;101578.00;179325;1273;58674;-84
2023/03/01 05:08:28;;;;;;;106.00;62.70;;;;;;;-2.08;85.04;101580.76;179419;1272;43845;-86
2023/03/01 05:12:32;;;;;;;85.10;56.20;;;;;;;-2.07;84.96;101582.15;179285;1272;43901;-84
2023/03/01 05:16:36;;;;;;;99.80;60.70;;;;;;;-2.05;85.91;101588.73;179587;1272;43765;-84
2023/03/01 05:20:40;;;;;;;115.30;59.70;;;;;;;-1.97;86.26;101587.10;179481;1273;43840;-86
2023/03/01 05:24:44;;;;;;;95.40;58.60;;;;;;;-1.95;85.20;101583.45;179364;1272;58300;-84
2023/03/01 05:28:48;;;;;;;111.40;63.90;;;;;;;-2.01;84.41;101587.33;179506;1272;43867;-85
2023/03/01 05:32:55;;;;;;;92.50;57.00;;;;;;;-2.06;84.20;101584.92;179402;1272;44276;-86
2023/03/01 05:36:59;;;;;;;105.40;59.10;;;;;;;-2.11;84.95;101591.75;179425;1272;44074;-85
2023/03/01 05:41:03;;;;;;;96.70;62.50;;;;;;;-2.07;86.40;101585.98;179562;1272;43913;-86
2023/03/01 05:45:09;;;;;;;97.30;60.60;;;;;;;-2.09;85.89;101589.46;179411;1272;59603;-85
2023/03/01 05:49:13;;;;;;;82.10;51.00;;;;;;;-2.11;86.60;101584.29;179560;1272;43726;-86
2023/03/01 05:53:20;;;;;;;88.10;56.10;;;;;;;-2.14;85.33;101584.65;179506;1271;44184;-85
2023/03/01 05:57:24;;;;;;;91.60;50.70;;;;;;;-2.17;85.60;101585.54;179362;1272;44022;-85
2023/03/01 06:01:27;;;;;;;99.80;58.70;;;;;;;-2.22;86.01;101589.75;179303;1271;43832;-85
2023/03/01 06:05:31;;;;;;;96.00;56.40;;;;;;;-2.29;86.68;101590.85;179301;1272;59410;-85
2023/03/01 06:09:35;;;;;;;99.60;57.70;;;;;;;-2.28;86.86;101592.23;179263;1271;43874;-85
2023/03/01 06:13:38;;;;;;;106.30;61.80;;;;;;;-2.15;87.23;101594.73;179414;1272;44108;-85
2023/03/01 06:17:43;;;;;;;105.50;65.40;;;;;;;-1.96;87.77;101593.19;179296;1272;43757;-85
2023/03/01 06:21:46;;;;;;;92.50;56.20;;;;;;;-1.78;87.74;101593.38;179419;1271;44066;-85
2023/03/01 06:25:50;;;;;;;113.50;59.60;;;;;;;-1.62;87.99;101595.48;179383;1272;59664;-85
2023/03/01 06:29:53;;;;;;;85.90;54.70;;;;;;;-1.52;88.62;101589.98;179224;1271;44023;-85
2023/03/01 06:33:58;;;;;;;109.90;65.30;;;;;;;-1.42;88.48;101591.80;179710;1271;43862;-85
2023/03/01 06:38:02;;;;;;;105.30;57.00;;;;;;;-1.31;88.78;101589.41;179520;1271;44043;-85
2023/03/01 06:42:08;;;;;;;94.90;60.70;;;;;;;-1.25;89.28;101591.44;179454;1272;43818;-85
2023/03/01 06:46:11;;;;;;;91.40;57.30;;;;;;;-1.14;89.72;101588.00;179424;1272;60778;-85
2023/03/01 06:50:15;;;;;;;88.60;56.50;;;;;;;-1.03;90.62;101582.47;179326;1271;43755;-86
2023/03/01 06:54:21;;;;;;;104.80;58.50;;;;;;;-0.83;89.98;101570.36;179268;1272;43810;-86
2023/03/01 06:58:25;;;;;;;94.30;57.40;;;;;;;-0.64;90.04;101571.84;179325;1271;44072;-85
2023/03/01 07:02:29;;;;;;;97.20;60.90;;;;;;;-0.53;90.21;101564.20;179416;1272;43809;-85
2023/03/01 07:06:32;;;;;;;105.50;64.70;;;;;;;-0.43;90.86;101563.35;179399;1272;58134;-86
2023/03/01 07:10:36;;;;;;;96.90;64.00;;;;;;;-0.32;90.86;101563.36;179428;1272;44131;-86
2023/03/01 07:14:39;;;;;;;108.60;62.10;;;;;;;-0.19;90.68;101563.84;179438;1272;44046;-86
2023/03/01 07:18:43;;;;;;;80.50;52.50;;;;;;;-0.09;90.49;101572.23;179374;1272;44549;-85
2023/03/01 07:22:48;;;;;;;91.60;58.20;;;;;;;0.06;89.96;101567.27;179579;1271;43720;-86
2023/03/01 07:26:51;;;;;;;105.00;65.50;;;;;;;0.21;89.39;101567.36;179984;1271;59245;-86
2023/03/01 07:30:55;;;;;;;103.00;61.50;;;;;;;0.37;88.96;101578.92;179603;1271;44140;-86
2023/03/01 07:34:58;;;;;;;105.70;71.50;;;;;;;0.48;88.32;101582.75;179410;1272;44080;-86
2023/03/01 07:39:03;;;;;;;85.70;53.20;;;;;;;0.75;89.22;101581.35;179408;1272;44044;-86
2023/03/01 07:43:07;;;;;;;90.30;55.90;;;;;;;0.98;87.68;101579.31;179364;1271;44240;-86
2023/03/01 07:47:11;;;;;;;96.70;62.30;;;;;;;1.23;87.74;101574.05;179449;1272;59311;-86
2023/03/01 07:51:14;;;;;;;107.70;66.00;;;;;;;1.40;87.07;101565.14;179327;1271;43834;-86
2023/03/01 07:55:17;;;;;;;98.50;61.60;;;;;;;1.69;87.69;101562.70;179388;1272;43824;-86
2023/03/01 07:59:21;;;;;;;79.10;46.60;;;;;;;1.94;85.65;101551.07;179541;1272;43884;-86
2023/03/01 08:03:24;;;;;;;77.80;53.40;;;;;;;2.01;84.99;101539.70;179412;1272;44007;-86
2023/03/01 08:07:28;;;;;;;90.50;54.10;;;;;;;2.13;85.17;101537.64;179531;1272;59437;-85
2023/03/01 08:11:32;;;;;;;95.00;57.60;;;;;;;2.22;84.28;101533.36;179430;1272;43858;-86
2023/03/01 08:15:36;;;;;;;88.70;49.70;;;;;;;2.39;84.64;101532.75;179657;1272;43984;-86
2023/03/01 08:19:39;;;;;;;74.60;48.00;;;;;;;2.62;84.83;101530.55;179410;1272;43803;-86
2023/03/01 08:23:43;;;;;;;74.40;49.30;;;;;;;2.85;83.21;101532.30;179488;1271;43936;-85
2023/03/01 08:27:46;;;;;;;86.00;54.00;;;;;;;3.24;81.46;101530.98;179472;1272;59583;-86
2023/03/01 08:31:51;;;;;;;85.50;52.40;;;;;;;3.58;80.06;101525.71;179445;1272;43955;-86
2023/03/01 08:36:03;;;;;;;81.90;48.30;;;;;;;3.82;78.20;101522.46;179408;1272;44191;-86
2023/03/01 08:40:09;;;;;;;65.60;47.60;;;;;;;3.83;75.57;101516.65;179526;1272;43920;-86
2023/03/01 08:44:16;;;;;;;72.80;45.40;;;;;;;3.68;75.09;101525.73;179439;1273;44085;-86
2023/03/01 08:48:20;;;;;;;67.40;44.90;;;;;;;3.64;75.00;101528.85;179482;1272;59569;-86
2023/03/01 08:52:24;;;;;;;77.80;48.10;;;;;;;3.74;75.68;101530.09;179435;1271;43895;-86
2023/03/01 08:56:27;;;;;;;74.00;49.30;;;;;;;3.90;75.06;101532.91;179516;1272;43957;-86
2023/03/01 09:00:34;;;;;;;73.60;43.90;;;;;;;4.03;73.86;101537.91;179341;1272;43763;-85
2023/03/01 09:04:38;;;;;;;;;;;;;;;4.08;73.79;101537.03;179295;1272;43791;-85
2023/03/01 09:08:43;;;;;;;74.80;46.30;;;;;;;4.19;73.94;101536.13;179461;1272;59469;-86
2023/03/01 09:12:47;;;;;;;69.40;43.90;;;;;;;4.24;73.02;101535.08;179534;1272;43876;-86
2023/03/01 09:16:51;;;;;;;78.30;50.30;;;;;;;4.26;73.12;101536.25;179270;1272;43853;-86
2023/03/01 09:21:06;;;;;;;67.80;44.70;;;;;;;4.24;72.17;101541.05;179473;1272;43885;-86
2023/03/01 09:25:10;;;;;;;75.40;46.00;;;;;;;4.18;70.94;101538.45;179454;1272;43780;-86
2023/03/01 09:29:14;;;;;;;64.00;43.30;;;;;;;4.18;71.08;101530.39;179232;1272;58636;-86
2023/03/01 09:33:17;;;;;;;75.50;44.80;;;;;;;4.21;71.84;101528.70;179392;1272;43796;-86
2023/03/01 09:37:22;;;;;;;79.90;45.20;;;;;;;4.29;71.48;101525.77;179448;1272;43921;-86
2023/03/01 09:41:49;;;;;;;81.70;49.10;;;;;;;4.37;71.27;101523.91;179350;1273;43763;-86
2023/03/01 09:45:55;;;;;;;74.00;46.60;;;;;;;4.46;70.88;101524.65;179430;1272;43726;-86
2023/03/01 09:50:14;;;;;;;80.70;48.50;;;;;;;4.48;70.29;101525.99;179641;1272;58365;-86
2023/03/01 09:54:17;;;;;;;72.90;43.80;;;;;;;4.50;69.06;101522.92;179393;1271;44066;-86
2023/03/01 09:58:58;;;;;;;63.10;42.00;;;;;;;4.55;69.24;101518.86;179301;1272;44564;-86
2023/03/01 10:03:25;;;;;;;56.50;40.60;;;;;;;4.61;69.00;101521.61;179551;1272;44174;-86
2023/03/01 10:08:02;;;;;;;62.50;34.40;;;;;;;4.69;67.44;101516.05;179504;1271;43808;-86
2023/03/01 10:12:16;;;;;;;52.20;31.50;;;;;;;4.71;65.13;101520.02;179549;1272;59714;-86
2023/03/01 10:16:34;;;;;;;50.80;32.40;;;;;;;4.78;64.53;101514.86;179562;1271;43758;-86
2023/03/01 10:20:46;;;;;;;49.20;33.10;;;;;;;4.91;64.28;101508.75;179371;1272;43851;-86
2023/03/01 10:24:52;;;;;;;63.30;37.80;;;;;;;5.10;64.39;101499.05;179409;1272;44116;-87
2023/03/01 10:29:07;;;;;;;53.10;34.60;;;;;;;5.20;64.12;101491.79;179605;1271;43807;-86
2023/03/01 10:33:22;;;;;;;52.80;35.90;;;;;;;5.31;63.05;101487.49;179518;1272;59741;-86
2023/03/01 10:37:27;;;;;;;47.20;32.00;;;;;;;5.42;63.15;101479.69;179688;1272;43957;-86
2023/03/01 10:41:30;;;;;;;57.10;36.30;;;;;;;5.45;62.91;101478.29;179408;1272;43836;-86
2023/03/01 10:45:38;;;;;;;60.90;40.50;;;;;;;5.44;63.64;101473.41;179406;1272;43988;-87
2023/03/01 10:49:53;;;;;;;57.60;35.60;;;;;;;5.47;62.50;101469.77;179468;1272;43765;-86
2023/03/01 10:53:57;;;;;;;49.40;34.60;;;;;;;5.56;60.91;101466.94;179407;1272;59256;-86
2023/03/01 10:58:07;;;;;;;57.70;35.50;;;;;;;5.63;60.49;101465.27;179571;1272;44043;-87
2023/03/01 11:02:30;;;;;;;51.30;32.10;;;;;;;5.76;61.37;101463.66;179412;1272;43842;-86
2023/03/01 11:06:35;;;;;;;57.80;35.60;;;;;;;5.93;61.47;101456.78;179160;1272;44042;-86
2023/03/01 11:10:38;;;;;;;53.70;35.00;;;;;;;5.96;60.67;101451.88;179333;1272;44160;-86
2023/03/01 11:14:52;;;;;;;46.60;30.00;;;;;;;5.93;60.48;101450.44;179252;1272;59521;-86
2023/03/01 11:18:59;;;;;;;58.30;37.20;;;;;;;5.76;59.99;101446.95;179376;1272;43912;-86
2023/03/01 11:23:08;;;;;;;53.90;33.20;;;;;;;5.75;61.40;101445.41;179527;1271;43839;-86
2023/03/01 11:27:26;;;;;;;62.90;40.40;;;;;;;5.83;61.90;101437.63;179176;1272;44241;-87
2023/03/01 11:31:30;;;;;;;59.20;38.40;;;;;;;5.91;61.63;101442.78;179468;1272;44182;-86
2023/03/01 11:35:41;;;;;;;53.90;36.20;;;;;;;5.94;60.84;101442.45;179407;1272;59331;-86
2023/03/01 11:39:52;;;;;;;50.70;30.90;;;;;;;5.84;60.79;101433.38;179346;1272;44024;-86
2023/03/01 11:44:10;;;;;;;51.60;34.70;;;;;;;5.69;61.71;101426.64;179481;1272;44295;-86
2023/03/01 11:48:32;;;;;;;53.00;35.40;;;;;;;5.77;61.82;101426.10;179375;1272;44110;-86
2023/03/01 11:53:09;;;;;;;41.70;29.70;;;;;;;5.93;59.54;101426.83;179472;1272;44319;-87
2023/03/01 11:57:50;;;;;;;49.20;27.50;;;;;;;5.94;58.31;101430.51;179392;1272;58268;-87
2023/03/01 12:01:56;;;;;;;48.60;30.70;;;;;;;5.94;57.26;101418.86;179350;1272;43850;-86
2023/03/01 12:06:23;;;;;;;43.00;27.80;;;;;;;6.00;57.59;101414.90;179473;1272;43923;-87
2023/03/01 12:10:46;;;;;;;41.30;27.70;;;;;;;6.13;57.18;101406.23;179490;1273;44199;-87
2023/03/01 12:15:20;;;;;;;45.10;29.60;;;;;;;6.25;56.68;101408.52;179392;1272;43756;-86
2023/03/01 12:20:02;;;;;;;31.60;22.90;;;;;;;6.34;56.06;101399.48;179531;1272;59302;-86
2023/03/01 12:24:44;;;;;;;46.10;25.60;;;;;;;6.44;55.18;101400.95;179154;1273;44163;-87
2023/03/01 12:29:14;;;;;;;40.60;22.90;;;;;;;6.54;54.76;101393.81;178784;1276;44113;-86
2023/03/01 12:33:36;;;;;;;31.00;21.40;;;;;;;6.60;54.81;101389.84;178602;1276;43898;-86
2023/03/01 12:37:45;;;;;;;35.00;23.10;;;;;;;6.66;54.93;101387.06;178702;1276;44217;-87
2023/03/01 12:41:54;;;;;;;29.30;18.20;;;;;;;6.73;54.77;101386.58;178733;1276;58601;-86
2023/03/01 12:46:00;;;;;;;28.80;20.30;;;;;;;6.78;54.24;101377.71;178543;1276;44248;-87
2023/03/01 12:50:40;;;;;;;41.20;26.50;;;;;;;6.85;53.33;101370.98;178690;1276;43998;-86
2023/03/01 12:54:45;;;;;;;25.90;16.00;;;;;;;6.87;51.04;101362.83;178427;1276;44202;-86
2023/03/01 12:59:02;;;;;;;22.70;15.60;;;;;;;6.91;50.71;101347.09;178613;1276;44235;-87
2023/03/01 13:03:32;;;;;;;;;;;;;;;6.99;48.91;101346.73;178437;1276;60762;-86
2023/03/01 13:07:54;;;;;;;23.80;15.00;;;;;;;7.03;49.17;101342.27;178919;1276;43577;-87
2023/03/01 13:11:58;;;;;;;20.10;14.30;;;;;;;7.07;48.55;101336.80;178754;1276;43793;-87
2023/03/01 13:16:30;;;;;;;23.30;14.50;;;;;;;7.13;48.54;101335.41;178617;1276;43945;-87
2023/03/01 13:20:42;;;;;;;36.00;23.10;;;;;;;7.14;47.15;101332.20;178711;1276;43892;-87
2023/03/01 13:24:45;;;;;;;17.80;12.70;;;;;;;7.20;48.07;101329.08;178750;1276;59599;-86
2023/03/01 13:28:52;;;;;;;19.50;12.90;;;;;;;7.29;49.20;101333.77;178822;1276;44018;-87
2023/03/01 13:33:14;;;;;;;;;;;;;;;7.39;50.01;101335.52;178529;1276;43911;-87
2023/03/01 13:37:22;;;;;;;24.80;16.60;;;;;;;7.35;48.97;101328.85;178688;1276;43563;-87
2023/03/01 13:41:43;;;;;;;29.80;16.40;;;;;;;7.44;49.33;101327.14;178511;1276;44179;-87
2023/03/01 13:45:47;;;;;;;22.70;14.30;;;;;;;7.54;49.20;101327.51;179387;1273;58134;-87
2023/03/01 13:50:03;;;;;;;27.80;15.60;;;;;;;7.65;49.02;101321.15;179446;1271;44296;-87
2023/03/01 13:54:12;;;;;;;22.80;15.30;;;;;;;7.74;48.43;101312.55;179339;1273;43814;-87
2023/03/01 13:58:21;;;;;;;23.90;16.90;;;;;;;7.80;48.51;101302.16;179477;1272;43838;-87
2023/03/01 14:02:24;;;;;;;26.10;17.30;;;;;;;7.80;48.76;101292.04;179678;1273;43742;-87
2023/03/01 14:06:35;;;;;;;27.60;19.50;;;;;;;7.70;48.30;101284.67;179355;1273;58433;-87
2023/03/01 14:10:54;;;;;;;27.40;20.20;;;;;;;7.64;49.89;101283.42;179368;1272;43980;-87
2023/03/01 14:15:15;;;;;;;28.60;18.40;;;;;;;7.60;49.46;101281.33;179302;1273;43868;-87
2023/03/01 14:19:25;;;;;;;21.10;14.70;;;;;;;7.58;49.14;101279.13;179393;1273;44009;-87
2023/03/01 14:23:41;;;;;;;25.80;15.70;;;;;;;7.39;48.94;101272.71;179518;1271;43801;-89
2023/03/01 14:27:54;;;;;;;29.40;17.50;;;;;;;7.32;49.05;101275.36;179684;1272;61143;-89
2023/03/01 14:32:18;;;;;;;23.30;15.60;;;;;;;7.39;48.99;101268.99;179255;1273;44080;-89
2023/03/01 14:36:27;;;;;;;22.50;17.00;;;;;;;7.48;49.39;101265.88;179144;1272;45147;-88
2023/03/01 14:40:36;;;;;;;26.50;18.10;;;;;;;7.65;50.13;101262.54;179393;1272;44036;-88
2023/03/01 14:44:43;;;;;;;26.50;18.50;;;;;;;7.76;49.85;101250.05;179548;1270;44292;-88
2023/03/01 14:48:48;;;;;;;;;;;;;;;7.88;49.37;101239.70;179346;1272;59679;-87
2023/03/01 14:52:55;;;;;;;23.80;15.00;;;;;;;8.00;49.66;101233.58;179576;1272;44016;-88
2023/03/01 14:57:01;;;;;;;27.60;17.20;;;;;;;8.02;49.01;101232.77;179245;1273;44299;-87
2023/03/01 15:01:05;;;;;;;26.10;19.30;;;;;;;7.93;49.29;101229.23;179273;1273;44412;-87
2023/03/01 15:05:09;;;;;;;27.20;18.40;;;;;;;7.89;49.58;101227.14;179124;1270;43919;-86
2023/03/01 15:09:17;;;;;;;23.80;17.50;;;;;;;7.85;49.95;101229.66;179204;1271;58353;-86
2023/03/01 15:13:25;;;;;;;28.00;17.40;;;;;;;7.83;49.56;101234.33;179082;1271;44040;-85
2023/03/01 15:17:34;;;;;;;23.80;15.40;;;;;;;7.86;49.61;101239.62;179322;1271;43895;-86
2023/03/01 15:21:38;;;;;;;26.40;15.80;;;;;;;7.91;49.66;101238.37;179134;1272;44275;-88
2023/03/01 15:25:44;;;;;;;23.80;18.30;;;;;;;7.95;50.06;101233.52;178943;1272;43884;-86
2023/03/01 15:29:52;;;;;;;33.20;20.70;;;;;;;7.99;49.90;101235.94;179215;1273;59280;-86
2023/03/01 15:34:32;;;;;;;34.40;20.80;;;;;;;7.96;50.21;101238.92;179253;1272;44233;-87
2023/03/01 15:38:42;;;;;;;25.90;19.30;;;;;;;7.82;50.56;101233.69;178288;1279;44117;-87
2023/03/01 15:42:45;;;;;;;35.70;20.70;;;;;;;7.59;51.65;101233.36;178234;1278;43905;-87
2023/03/01 15:46:49;;;;;;;29.20;19.50;;;;;;;7.42;51.56;101232.29;178141;1280;44010;-87
2023/03/01 15:50:57;;;;;;;28.20;20.90;;;;;;;7.26;51.55;101231.57;177933;1278;59399;-87
2023/03/01 15:55:06;;;;;;;30.40;22.10;;;;;;;7.09;51.86;101237.57;178027;1278;43976;-86
2023/03/01 15:59:14;;;;;;;35.10;24.50;;;;;;;6.91;52.09;101235.83;178174;1278;44068;-86
2023/03/01 16:03:21;;;;;;;119.20;67.80;;;;;;;6.72;53.23;101236.79;178267;1278;43873;-85
2023/03/01 16:07:26;;;;;;;113.60;68.20;;;;;;;6.61;53.25;101238.20;178311;1279;44194;-85
2023/03/01 16:11:31;;;;;;;109.00;60.50;;;;;;;6.52;53.30;101236.18;178329;1274;60670;-84
2023/03/01 16:15:35;;;;;;;169.50;90.70;;;;;;;6.43;53.60;101237.84;179219;1273;44078;-85
2023/03/01 16:19:38;;;;;;;219.70;121.80;;;;;;;6.39;53.64;101239.13;179309;1272;44126;-85
2023/03/01 16:23:43;;;;;;;309.20;166.20;;;;;;;6.32;53.67;101235.95;179327;1272;44031;-84
2023/03/01 16:27:49;;;;;;;222.10;131.60;;;;;;;6.25;53.58;101233.98;179075;1273;43788;-84
2023/03/01 16:31:52;;;;;;;97.40;58.20;;;;;;;6.18;53.58;101235.21;179352;1272;59807;-86
2023/03/01 16:35:56;;;;;;;66.80;40.60;;;;;;;6.06;54.36;101244.39;179320;1272;44115;-83
2023/03/01 16:40:00;;;;;;;44.20;25.80;;;;;;;5.93;56.06;101250.27;179217;1273;44298;-86
2023/03/01 16:44:04;;;;;;;46.50;29.90;;;;;;;5.81;55.11;101257.31;179185;1272;44022;-86
2023/03/01 16:48:08;;;;;;;43.20;29.70;;;;;;;5.68;55.58;101261.25;179296;1272;43954;-86
2023/03/01 16:52:11;;;;;;;55.70;34.70;;;;;;;5.41;57.69;101264.91;178997;1273;58153;-86
2023/03/01 16:56:16;;;;;;;46.20;30.90;;;;;;;5.16;58.59;101257.70;179313;1272;43746;-87
2023/03/01 17:00:20;;;;;;;51.50;31.30;;;;;;;4.98;58.81;101263.05;178872;1273;413608;-87
2023/03/01 17:04:24;;;;;;;38.80;25.00;;;;;;;4.81;58.50;101270.27;179323;1273;43848;-85
2023/03/01 17:08:27;;;;;;;102.50;56.50;;;;;;;4.74;57.52;101278.84;179198;1273;44011;-88
2023/03/01 17:12:31;;;;;;;76.80;45.00;;;;;;;4.71;55.33;101280.88;179073;1272;58728;-87
2023/03/01 17:16:35;;;;;;;39.30;24.50;;;;;;;4.70;55.35;101286.89;179273;1273;43787;-87
2023/03/01 17:20:38;;;;;;;27.70;19.50;;;;;;;4.70;56.34;101290.38;179333;1273;43940;-86
2023/03/01 17:24:43;;;;;;;25.70;17.00;;;;;;;4.70;56.82;101289.52;179274;1273;44264;-86
2023/03/01 17:28:50;;;;;;;22.80;16.00;;;;;;;4.68;57.45;101292.06;179164;1273;44381;-86
2023/03/01 17:32:54;;;;;;;31.20;22.00;;;;;;;4.65;57.41;101287.47;179240;1272;57845;-87
2023/03/01 17:36:58;;;;;;;35.60;24.30;;;;;;;4.62;56.64;101289.67;179334;1273;44088;-86
2023/03/01 17:41:02;;;;;;;40.70;29.30;;;;;;;4.61;56.07;101287.95;180057;1273;43435;-84
2023/03/01 17:45:06;;;;;;;47.70;27.30;;;;;;;4.60;55.91;101286.06;179571;1272;44027;-86
2023/03/01 17:49:09;;;;;;;48.20;27.50;;;;;;;4.57;56.00;101283.73;179408;1272;43831;-86
2023/03/01 17:53:13;;;;;;;52.80;29.20;;;;;;;4.44;57.21;101286.01;179407;1272;58774;-85
2023/03/01 17:57:16;;;;;;;40.80;29.10;;;;;;;4.35;56.73;101289.69;179291;1272;43758;-84
2023/03/01 18:01:20;;;;;;;50.90;29.00;;;;;;;4.29;56.50;101291.16;179347;1273;43808;-85
2023/03/01 18:05:24;;;;;;;56.80;33.40;;;;;;;4.22;56.24;101290.38;179428;1271;43989;-84
2023/03/01 18:09:27;;;;;;;50.40;35.10;;;;;;;4.16;56.17;101295.34;179233;1272;44082;-86
2023/03/01 18:13:30;;;;;;;53.00;33.70;;;;;;;4.11;56.10;101290.60;179326;1271;60180;-86
2023/03/01 18:17:33;;;;;;;51.60;29.60;;;;;;;4.06;56.21;101290.81;179307;1272;43885;-85
2023/03/01 18:21:36;;;;;;;84.40;46.30;;;;;;;3.90;57.93;101288.59;179181;1273;43825;-86
2023/03/01 18:25:40;;;;;;;173.70;91.20;;;;;;;3.65;59.39;101293.76;179392;1273;44037;-86
2023/03/01 18:29:43;;;;;;;216.70;120.30;;;;;;;3.39;60.48;101289.39;179480;1273;43836;-86
2023/03/01 18:33:47;;;;;;;188.80;102.80;;;;;;;3.18;61.40;101292.05;179353;1272;58957;-85
2023/03/01 18:37:50;;;;;;;137.00;75.40;;;;;;;2.97;63.16;101296.08;179229;1272;44459;-86